サルタ の空港の天気 - METARとTAF

サルタ空港 ( SASA / SLA ) - アルゼンチン サルタ州、Salta
飛行場実況気象(Metar)
観測時間07/29 00:00 ART (07/29 03:00 UTC)
風向・風速南 2m/s
視程10km以上
天気現象
なし
気温-1℃
湿度86%
気圧1031hPa
METARSASA 290300Z 18003KT CAVOK M01/M03 Q1031
過去の天気等 Google飛行場航空写真 Wunderground天気予報

過去48時間のMETAR

飛行場予報(TAF)
発表時間: 7/28 20:00 ART (7/28 23:00 UTC)
予報対象時間: 28日21時 ART ~ 29日21時 ART
風向・風速東 3m/s
視程10km以上
少しの雲 雲底高度 760m
全天の8割程度の雲 雲底高度 1220m
29日9時 ART ~ 29日12時 ART に徐々に
風向・風速南西 3m/s
視程10km以上
全天の4割程度の雲 雲底高度 1070m
TAF SASA 282300Z 2900/2924 09005KT 9999 FEW025 BKN040 TX12/2918Z TN01/2911Z
BECMG 2912/2915 23005KT 9999 SCT035